createdAt,value
2022-12-27T00:02:53.686Z,12.28
2022-12-27T00:06:57.041Z,12.24
2022-12-27T00:11:06.655Z,12.22
2022-12-27T00:15:10.754Z,12.21
2022-12-27T00:19:15.319Z,12.14
2022-12-27T00:23:18.587Z,12.10
2022-12-27T00:27:21.672Z,12.04
2022-12-27T00:31:26.325Z,12.06
2022-12-27T00:35:30.767Z,12.04
2022-12-27T00:39:34.145Z,12.04
2022-12-27T00:43:37.672Z,12.03
2022-12-27T00:47:41.006Z,12.01
2022-12-27T00:51:45.639Z,12.00
2022-12-27T00:55:48.974Z,11.97
2022-12-27T00:59:52.234Z,11.96
2022-12-27T01:03:55.690Z,11.92
2022-12-27T01:08:00.509Z,11.90
2022-12-27T01:12:03.524Z,11.86
2022-12-27T01:16:10.838Z,11.82
2022-12-27T01:20:14.087Z,11.75
2022-12-27T01:24:18.991Z,11.73
2022-12-27T01:28:22.072Z,11.72
2022-12-27T01:32:26.181Z,11.69
2022-12-27T01:36:31.020Z,11.66
2022-12-27T01:40:36.837Z,11.62
2022-12-27T01:44:52.031Z,11.54
2022-12-27T01:48:56.227Z,11.51
2022-12-27T01:53:06.969Z,11.51
2022-12-27T01:57:12.374Z,11.50
2022-12-27T02:01:19.102Z,11.47
2022-12-27T02:05:25.639Z,11.46
2022-12-27T02:09:39.974Z,11.41
2022-12-27T02:13:47.286Z,11.39
2022-12-27T02:17:50.659Z,11.35
2022-12-27T02:22:14.341Z,11.27
2022-12-27T02:26:40.815Z,11.19
2022-12-27T02:30:48.440Z,11.10
2022-12-27T02:35:01.041Z,11.07
2022-12-27T02:39:05.165Z,11.04
2022-12-27T02:43:26.067Z,10.93
2022-12-27T02:47:49.584Z,10.98
2022-12-27T02:52:26.459Z,11.00
2022-12-27T02:56:55.222Z,11.00
2022-12-27T03:01:27.716Z,11.02
2022-12-27T03:05:46.191Z,10.91
2022-12-27T03:10:21.678Z,10.89
2022-12-27T03:14:55.881Z,10.83
2022-12-27T03:19:08.144Z,10.88
2022-12-27T03:23:31.032Z,10.88
2022-12-27T03:27:36.538Z,10.93
2022-12-27T03:32:01.851Z,10.92
2022-12-27T03:36:26.836Z,10.84
2022-12-27T03:40:39.651Z,10.81
2022-12-27T03:44:41.406Z,10.83
2022-12-27T03:48:56.692Z,10.80
2022-12-27T03:53:07.982Z,10.74
2022-12-27T03:57:15.321Z,10.73
2022-12-27T04:01:18.771Z,10.72
2022-12-27T04:05:21.794Z,10.70
2022-12-27T04:09:42.380Z,10.66
2022-12-27T04:14:04.689Z,10.65
2022-12-27T04:18:25.166Z,10.52
2022-12-27T04:22:45.994Z,10.39
2022-12-27T04:27:06.281Z,10.18
2022-12-27T04:31:28.365Z,10.02
2022-12-27T04:35:31.516Z,9.86
2022-12-27T04:39:34.762Z,9.71
2022-12-27T04:43:55.106Z,9.61
2022-12-27T04:48:17.687Z,9.56
2022-12-27T04:52:56.116Z,9.50
2022-12-27T04:56:59.363Z,9.42
2022-12-27T05:01:21.857Z,9.29
2022-12-27T05:05:27.324Z,9.26
2022-12-27T05:09:48.002Z,9.21
2022-12-27T05:14:03.490Z,9.16
2022-12-27T05:18:06.932Z,9.09
2022-12-27T05:22:29.169Z,9.12
2022-12-27T05:26:33.365Z,9.08
2022-12-27T05:30:37.792Z,9.01
2022-12-27T05:34:41.045Z,8.95
2022-12-27T05:38:45.920Z,8.85
2022-12-27T05:42:49.254Z,8.75
2022-12-27T05:46:52.234Z,8.63
2022-12-27T05:50:55.476Z,8.54
2022-12-27T05:55:00.378Z,8.43
2022-12-27T05:59:03.651Z,8.33
2022-12-27T06:03:06.749Z,8.21
2022-12-27T06:07:12.372Z,8.06
2022-12-27T06:11:19.004Z,7.94
2022-12-27T06:15:22.126Z,7.79
2022-12-27T06:19:25.400Z,7.67
2022-12-27T06:23:28.619Z,7.57
2022-12-27T06:27:33.346Z,7.46
2022-12-27T06:31:36.645Z,7.36
2022-12-27T06:35:39.716Z,7.28
2022-12-27T06:39:42.985Z,7.18
2022-12-27T06:43:48.367Z,7.13
2022-12-27T06:47:51.397Z,7.03
2022-12-27T06:51:59.537Z,6.97
2022-12-27T06:56:05.672Z,6.89
2022-12-27T07:00:13.671Z,6.86
2022-12-27T07:04:17.055Z,6.82
2022-12-27T07:08:20.134Z,6.79
2022-12-27T07:12:23.409Z,6.75
2022-12-27T07:16:31.205Z,6.72
2022-12-27T07:20:34.630Z,6.66
2022-12-27T07:24:37.690Z,6.59
2022-12-27T07:28:41.084Z,6.54
2022-12-27T07:32:45.717Z,6.49
2022-12-27T07:36:49.375Z,6.44
2022-12-27T07:40:52.395Z,6.40
2022-12-27T07:44:55.679Z,6.38
2022-12-27T07:49:01.176Z,6.36
2022-12-27T07:53:04.439Z,6.40
2022-12-27T07:57:07.507Z,6.50
2022-12-27T08:01:12.023Z,6.52
2022-12-27T08:05:20.359Z,6.62
2022-12-27T08:09:30.338Z,6.75
2022-12-27T08:13:33.711Z,6.84
2022-12-27T08:17:36.960Z,6.94
2022-12-27T08:21:41.790Z,7.09
2022-12-27T08:25:49.072Z,7.26
2022-12-27T08:29:52.360Z,7.45
2022-12-27T08:33:58.852Z,7.64
2022-12-27T08:38:04.203Z,7.85
2022-12-27T08:42:07.407Z,8.02
2022-12-27T08:46:10.995Z,8.20
2022-12-27T08:50:14.300Z,8.36
2022-12-27T08:54:19.172Z,8.54
2022-12-27T08:58:22.229Z,8.70
2022-12-27T09:02:25.532Z,8.86
2022-12-27T09:06:29.082Z,9.04
2022-12-27T09:10:33.806Z,9.23
2022-12-27T09:14:36.998Z,9.42
2022-12-27T09:18:40.471Z,9.60
2022-12-27T09:22:43.639Z,9.82
2022-12-27T09:26:48.285Z,10.07
2022-12-27T09:30:51.535Z,10.28
2022-12-27T09:34:55.702Z,10.47
2022-12-27T09:39:00.018Z,10.63
2022-12-27T09:43:19.557Z,10.78
2022-12-27T09:47:28.554Z,10.86
2022-12-27T09:51:36.127Z,10.93
2022-12-27T09:55:44.553Z,11.00
2022-12-27T09:59:51.745Z,11.05
2022-12-27T10:03:55.606Z,11.13
2022-12-27T10:08:13.895Z,11.19
2022-12-27T10:12:32.065Z,11.27
2022-12-27T10:16:43.213Z,11.37
2022-12-27T10:21:03.530Z,11.43
2022-12-27T10:25:13.365Z,11.50
2022-12-27T10:29:22.221Z,11.56
2022-12-27T10:33:32.672Z,11.59
2022-12-27T10:37:35.738Z,11.64
2022-12-27T10:41:50.525Z,11.66
2022-12-27T10:45:54.703Z,11.70
2022-12-27T10:50:11.569Z,11.73
2022-12-27T11:04:59.344Z,11.98
2022-12-27T11:09:27.409Z,12.01
2022-12-27T11:13:30.413Z,11.98
2022-12-27T11:17:48.031Z,12.02
2022-12-27T11:21:52.687Z,11.99
2022-12-27T11:25:59.586Z,12.03
2022-12-27T11:30:03.975Z,12.06
2022-12-27T11:34:14.593Z,12.04
2022-12-27T11:38:25.620Z,12.07
2022-12-27T11:42:38.707Z,12.13
2022-12-27T11:46:46.673Z,12.20
2022-12-27T14:59:38.551Z,10.02
2022-12-27T15:04:05.058Z,9.76
2022-12-27T15:08:24.272Z,9.51
2022-12-27T15:12:37.117Z,9.28
2022-12-27T15:16:45.806Z,9.08
2022-12-27T15:21:24.569Z,8.82
2022-12-27T15:25:44.669Z,8.57
2022-12-27T15:30:01.967Z,8.31
2022-12-27T15:34:24.389Z,8.18
2022-12-27T15:38:42.517Z,8.02
2022-12-27T15:42:55.425Z,7.93
2022-12-27T15:47:37.497Z,7.86
2022-12-27T15:51:50.529Z,7.80
2022-12-27T15:56:12.589Z,7.75
2022-12-27T16:00:33.318Z,7.71
2022-12-27T16:04:48.418Z,7.64
2022-12-27T16:09:24.860Z,7.62
2022-12-27T16:13:41.866Z,7.54
2022-12-27T16:17:56.904Z,7.52
2022-12-27T16:22:00.450Z,7.47
2022-12-27T16:26:07.753Z,7.42
2022-12-27T16:30:12.168Z,7.36
2022-12-27T16:34:25.926Z,7.33
2022-12-27T16:38:32.318Z,7.26
2022-12-27T16:43:10.872Z,7.32
2022-12-27T16:47:50.004Z,7.34
2022-12-27T16:52:20.071Z,7.36
2022-12-27T16:56:48.286Z,7.36
2022-12-27T17:00:52.978Z,7.36
2022-12-27T17:05:00.667Z,7.34
2022-12-27T17:09:43.172Z,7.37
2022-12-27T17:13:51.278Z,7.32
2022-12-27T17:17:58.618Z,7.29
2022-12-27T17:22:05.133Z,7.26
2022-12-27T17:26:23.758Z,7.22
2022-12-27T17:30:38.488Z,7.16
2022-12-27T17:34:55.127Z,7.09
2022-12-27T17:39:22.960Z,7.02
2022-12-27T17:43:54.206Z,6.95
2022-12-27T17:48:10.331Z,6.93
2022-12-27T17:52:35.895Z,6.93
2022-12-27T17:57:04.888Z,6.94
2022-12-27T18:01:08.341Z,6.90
2022-12-27T18:05:16.232Z,6.90
2022-12-27T18:09:34.000Z,6.85
2022-12-27T18:13:41.261Z,6.78
2022-12-27T18:17:48.074Z,6.69
2022-12-27T18:22:01.382Z,6.62
2022-12-27T18:26:13.504Z,6.50
2022-12-27T18:30:17.060Z,6.38
2022-12-27T18:34:26.947Z,6.28
2022-12-27T18:38:36.395Z,6.17
2022-12-27T18:42:45.108Z,6.11
2022-12-27T18:46:51.400Z,6.07
2022-12-27T18:50:58.401Z,6.05
2022-12-27T18:55:19.321Z,5.96
2022-12-27T18:59:26.575Z,5.96
2022-12-27T19:03:35.227Z,5.94
2022-12-27T19:07:42.179Z,5.94
2022-12-27T19:11:54.478Z,5.99
2022-12-27T19:16:02.525Z,6.07
2022-12-27T19:20:10.037Z,6.22
2022-12-27T19:24:32.959Z,6.30
2022-12-27T19:28:37.713Z,6.34
2022-12-27T19:32:42.393Z,6.27
2022-12-27T19:36:47.299Z,6.16
2022-12-27T19:40:59.536Z,6.07
2022-12-27T19:45:10.859Z,5.96
2022-12-27T19:53:39.740Z,5.70
2022-12-27T19:57:44.498Z,5.63
2022-12-27T20:01:49.813Z,5.53
2022-12-27T20:06:13.587Z,5.47
2022-12-27T20:10:18.737Z,5.44
2022-12-27T20:14:21.903Z,5.41
2022-12-27T20:18:28.181Z,5.41
2022-12-27T20:22:31.272Z,5.45
2022-12-27T20:26:34.763Z,5.46
2022-12-27T20:30:39.737Z,5.49
2022-12-27T20:34:44.526Z,5.49
2022-12-27T20:38:47.731Z,5.48
2022-12-27T20:42:51.293Z,5.44
2022-12-27T20:46:54.447Z,5.38
2022-12-27T20:50:59.318Z,5.28
2022-12-27T20:55:02.500Z,5.17
2022-12-27T20:59:06.020Z,5.06
2022-12-27T21:03:11.149Z,4.97
2022-12-27T21:07:16.164Z,4.87
2022-12-27T21:11:21.445Z,4.77
2022-12-27T21:15:24.828Z,4.70
2022-12-27T21:19:27.896Z,4.61
2022-12-27T21:23:34.769Z,4.54
2022-12-27T21:27:37.989Z,4.46
2022-12-27T21:31:41.436Z,4.37
2022-12-27T21:35:44.868Z,4.27
2022-12-27T21:39:49.612Z,4.17
2022-12-27T21:43:56.122Z,4.07
2022-12-27T21:47:59.443Z,4.00
2022-12-27T21:52:02.599Z,3.93
2022-12-27T21:56:08.189Z,3.87
2022-12-27T22:00:13.068Z,3.82
2022-12-27T22:04:16.273Z,3.77
2022-12-27T22:08:19.331Z,3.72
2022-12-27T22:12:24.436Z,3.66
2022-12-27T22:16:29.348Z,3.55
2022-12-27T22:20:32.665Z,3.43
2022-12-27T22:24:35.802Z,3.41
2022-12-27T22:28:40.777Z,3.32
2022-12-27T22:32:43.845Z,3.23
2022-12-27T22:36:47.579Z,3.13
2022-12-27T22:40:51.016Z,3.05
2022-12-27T22:44:55.975Z,2.97
2022-12-27T22:49:02.683Z,2.93
2022-12-27T22:53:06.163Z,2.94
2022-12-27T22:57:09.176Z,2.99
2022-12-27T23:01:15.152Z,3.04
2022-12-27T23:05:18.521Z,3.11
2022-12-27T23:14:43.475Z,3.27
2022-12-27T23:18:48.127Z,3.28
2022-12-27T23:22:51.429Z,3.28
2022-12-27T23:26:54.577Z,3.25
2022-12-27T23:30:58.091Z,3.21
2022-12-27T23:35:02.757Z,3.17
2022-12-27T23:39:06.772Z,3.10
2022-12-27T23:43:42.183Z,3.07
2022-12-27T23:47:33.158Z,3.03
2022-12-27T23:55:45.024Z,2.92
2022-12-27T23:59:49.513Z,2.87
